KSMF Airport Information

Runway Information
Runway 16L Length 8601 ft width 150 ft
Elevation 27 ft Threshold 0 ft Heading 181
Runway 34R Length 8601 ft Width 150 ft
Elevation 22 ft Threshold 0 ft Heading 1
Runway 16R Length 8600 ft width 150 ft
Elevation 25 ft Threshold 0 ft Heading 181
Runway 34L Length 8600 ft Width 150 ft
Elevation 22 ft Threshold 0 ft Heading 1
Airport Frequencies
Type A/D Name NORCAL APP Frequency 25.91 MHZ
Type A/D Name NORCAL APP Frequency 125.25 MHZ
Type ATIS Name ATIS Frequency 126.75 MHZ
Type CLD Name CLNC DEL Frequency 121.1 MHZ
Type GND Name GND Frequency 121.7 MHZ
Type TWR Name CAPITOL TW Frequency 125.7 MHZ
Type UNIC Name UNICOM Frequency 122.95 MHZ
Airport Navaids
Type NDB Name Lanee Frequency 400 KHZ
Type NDB Name Metre Frequency 230 KHZ
Airport Weather Information & NOTAM
ADDS - METARS form results

(1450 UTC 20 April 2018)
Data provider http://aviationweather.gov/adds/metars/
 
METAR text: KSMF 201353Z 33005KT 10SM CLR 07/04 A3013 RMK AO2 SLP202 T00670044
Conditions at: KSMF (SACRAMENTO/METRO, CA, US) observed 1353 UTC 20 April 2018
Temperature: 6.7°C (44°F)
Dewpoint: 4.4°C (40°F) [RH = 85%]
Pressure (altimeter): 30.13 inches Hg (1020.4 mb)
[Sea-level pressure: 1020.2 mb]
Winds: from the NNW (330 degrees) at 6 MPH (5 knots; 2.6 m/s)
Visibility: 10 or more miles (16+ km)
Ceiling: at least 12,000 feet AGL
Clouds: sky clear below 12,000 feet AGL
Weather: no significant weather observed at this time

Forecast for: KSMF (SACRAMENTO/METRO, CA, US)
Text: KSMF 201120Z 2012/2112 35008KT P6SM SKC
Forecast period: 1200 UTC 20 April 2018 to 0000 UTC 21 April 2018
Forecast type: FROM: standard forecast or significant change
Winds: from the N (350 degrees) at 9 MPH (8 knots; 4.2 m/s)
Visibility: 6 or more miles (10+ km)
Clouds: clear skies
Weather: no significant weather forecast for this period
Forecast for: KSMF (SACRAMENTO/METRO, CA, US)
Text: KSMF 201120Z 2012/2112 35008KT P6SM SKC
Forecast period: 1200 UTC 20 April 2018 to 0000 UTC 21 April 2018
Forecast type: FROM: standard forecast or significant change
Winds: from the N (350 degrees) at 9 MPH (8 knots; 4.2 m/s)
Visibility: 6 or more miles (10+ km)
Clouds: clear skies
Weather: no significant weather forecast for this period
Forecast for: KSMF (SACRAMENTO/METRO, CA, US)
Text: KSMF 201120Z 2012/2112 35008KT P6SM SKC
Forecast period: 0000 to 1200 UTC 21 April 2018
Forecast type: FROM: standard forecast or significant change
Winds: from the S (180 degrees) at 7 MPH (6 knots; 3.1 m/s)
Visibility: 6 or more miles (10+ km)
Clouds: clear skies
Weather: no significant weather forecast for this period
Forecast for: KSMF (SACRAMENTO/METRO, CA, US)
Text: KSMF 201120Z 2012/2112 35008KT P6SM SKC
Forecast period: 0000 to 1200 UTC 21 April 2018
Forecast type: FROM: standard forecast or significant change
Winds: from the S (180 degrees) at 7 MPH (6 knots; 3.1 m/s)
Visibility: 6 or more miles (10+ km)
Clouds: clear skies
Weather: no significant weather forecast for this period